Augusta Township, Michigan
Current Conditions -  °F | °C
As of 7:53 AM on Friday 28 Nov 2014 (Local Time) from KARB Reporting Station
Broken Clouds Broken Clouds  
Wind Chill: -14°   Ceiling: 3600
Heat Index: -9°   Visibility: 10mi
Dew Point: -12°   Wind: 6mph
Humidity: 81%   Direction: 240°WSW
Pressure: 30.34"   Gusts: NA
Location:  42.0828°N, 83.683°W
Report Text: KARB 281253Z AUTO 24005KT 10SM BKN036 BKN120 M09/M12 A3034 RMK AO2 SLP289 T10891117
Loading
Personal Weather Stations






























Interactive Weather Map New forecast layout! Learn more

10-Day Weather Forecast

Advertisements
Track Severe Weather on mobile